createdAt,value
2023-11-26T03:06:46.556Z,39.76
2023-11-26T03:09:13.163Z,39.77
2023-11-26T03:11:39.810Z,39.65
2023-11-26T03:14:06.429Z,39.64
2023-11-26T03:16:33.087Z,39.76
2023-11-26T03:18:59.709Z,39.73
2023-11-26T03:21:26.294Z,39.59
2023-11-26T03:23:52.891Z,39.72
2023-11-26T03:26:19.574Z,39.64
2023-11-26T03:28:46.187Z,39.73
2023-11-26T03:31:12.787Z,39.69
2023-11-26T03:33:39.493Z,39.70
2023-11-26T03:36:06.131Z,39.69
2023-11-26T03:38:32.741Z,39.87
2023-11-26T03:40:59.386Z,39.79
2023-11-26T03:43:26.010Z,39.66
2023-11-26T03:45:52.627Z,39.76
2023-11-26T03:48:19.241Z,39.73
2023-11-26T03:50:45.837Z,39.73
2023-11-26T03:53:12.463Z,39.65
2023-11-26T03:55:39.074Z,39.78
2023-11-26T03:58:05.671Z,39.59
2023-11-26T04:00:32.279Z,39.77
2023-11-26T04:02:59.025Z,39.78
2023-11-26T04:05:25.702Z,39.69
2023-11-26T04:07:52.392Z,39.79
2023-11-26T04:10:27.294Z,39.80
2023-11-26T04:12:57.883Z,39.77
2023-11-26T04:15:24.483Z,39.65
2023-11-26T04:17:51.235Z,39.76
2023-11-26T04:20:17.924Z,39.77
2023-11-26T04:22:45.677Z,39.63
2023-11-26T04:25:12.548Z,39.74
2023-11-26T04:27:39.151Z,39.78
2023-11-26T04:30:05.761Z,39.67
2023-11-26T04:32:32.409Z,39.68
2023-11-26T04:34:59.140Z,39.78
2023-11-26T04:37:25.742Z,39.75
2023-11-26T04:39:52.342Z,39.62
2023-11-26T04:42:18.955Z,39.69
2023-11-26T04:44:45.598Z,39.60
2023-11-26T04:47:12.235Z,39.78
2023-11-26T04:49:38.841Z,39.72
2023-11-26T04:52:05.432Z,39.67
2023-11-26T04:54:32.037Z,39.76
2023-11-26T04:56:58.642Z,39.59
2023-11-26T04:59:25.266Z,39.61
2023-11-26T05:01:51.938Z,39.68
2023-11-26T05:04:18.757Z,39.52
2023-11-26T05:06:45.411Z,39.67
2023-11-26T05:09:12.022Z,39.57
2023-11-26T05:11:38.618Z,39.69
2023-11-26T05:14:05.229Z,39.75
2023-11-26T05:16:31.856Z,39.56
2023-11-26T05:18:58.485Z,39.71
2023-11-26T05:21:25.090Z,39.47
2023-11-26T05:23:51.688Z,39.51
2023-11-26T05:26:18.322Z,39.50
2023-11-26T05:28:44.935Z,39.69
2023-11-26T05:31:11.546Z,39.45
2023-11-26T05:33:38.166Z,39.59
2023-11-26T05:36:04.763Z,39.67
2023-11-26T05:38:31.366Z,39.54
2023-11-26T05:40:58.057Z,39.62
2023-11-26T05:43:24.682Z,39.54
2023-11-26T05:45:51.471Z,39.58
2023-11-26T05:48:18.127Z,39.53
2023-11-26T05:50:44.770Z,39.56
2023-11-26T05:53:11.350Z,39.59
2023-11-26T05:55:37.942Z,39.51
2023-11-26T05:58:04.535Z,39.61
2023-11-26T06:00:31.218Z,39.59
2023-11-26T06:02:57.861Z,39.57
2023-11-26T06:05:24.466Z,39.57
2023-11-26T06:07:51.061Z,39.63
2023-11-26T06:10:17.650Z,39.62
2023-11-26T06:12:44.269Z,39.49
2023-11-26T06:15:10.961Z,39.54
2023-11-26T06:17:37.617Z,39.52
2023-11-26T06:20:04.235Z,39.53
2023-11-26T06:22:30.825Z,39.43
2023-11-26T06:24:57.414Z,39.38
2023-11-26T06:27:24.063Z,39.54
2023-11-26T06:29:50.673Z,39.50
2023-11-26T06:32:17.470Z,39.43
2023-11-26T06:34:44.291Z,39.47
2023-11-26T06:37:10.969Z,39.35
2023-11-26T06:39:37.624Z,39.47
2023-11-26T06:42:04.253Z,39.46
2023-11-26T06:44:30.842Z,39.51
2023-11-26T06:46:57.520Z,39.45
2023-11-26T06:49:24.122Z,39.45
2023-11-26T06:51:50.772Z,39.45
2023-11-26T06:54:17.454Z,39.51
2023-11-26T06:56:44.075Z,39.43
2023-11-26T06:59:10.699Z,39.43
2023-11-26T07:01:37.318Z,39.43
2023-11-26T07:04:04.148Z,39.52
2023-11-26T07:06:30.899Z,39.39
2023-11-26T07:08:57.516Z,39.06
2023-11-26T07:11:24.177Z,38.85
2023-11-26T07:13:50.803Z,38.97
2023-11-26T07:16:17.393Z,39.06
2023-11-26T07:18:44.016Z,39.16
2023-11-26T07:21:10.650Z,39.37
2023-11-26T07:23:37.273Z,39.36
2023-11-26T07:26:03.870Z,39.46
2023-11-26T07:28:30.453Z,39.30
2023-11-26T07:30:57.056Z,39.39
2023-11-26T07:33:23.672Z,39.22
2023-11-26T07:35:50.290Z,39.25
2023-11-26T07:38:16.877Z,39.38
2023-11-26T07:40:43.484Z,39.31
2023-11-26T07:43:10.072Z,39.23
2023-11-26T07:45:36.748Z,39.20
2023-11-26T07:48:03.442Z,39.20
2023-11-26T07:50:30.082Z,39.22
2023-11-26T07:52:56.681Z,39.11
2023-11-26T07:55:23.279Z,39.27
2023-11-26T07:57:49.974Z,39.23
2023-11-26T08:00:16.660Z,39.11
2023-11-26T08:02:43.300Z,39.24
2023-11-26T08:05:10.003Z,39.21
2023-11-26T08:07:36.632Z,39.19
2023-11-26T08:10:03.216Z,39.03
2023-11-26T08:12:29.796Z,39.17
2023-11-26T08:14:56.412Z,39.09
2023-11-26T08:17:23.001Z,39.11
2023-11-26T08:19:49.605Z,39.12
2023-11-26T08:22:16.206Z,39.11
2023-11-26T08:24:42.797Z,39.00
2023-11-26T08:27:09.392Z,39.07
2023-11-26T08:29:35.995Z,39.05
2023-11-26T08:32:03.472Z,38.96
2023-11-26T08:34:31.023Z,39.03
2023-11-26T08:36:57.714Z,39.09
2023-11-26T08:39:24.368Z,39.06
2023-11-26T08:41:50.972Z,38.98
2023-11-26T08:44:17.557Z,39.02
2023-11-26T08:46:44.211Z,39.18
2023-11-26T08:49:10.836Z,39.11
2023-11-26T08:51:37.466Z,39.07
2023-11-26T08:54:04.085Z,39.00
2023-11-26T08:56:30.684Z,39.08
2023-11-26T08:58:57.286Z,39.08
2023-11-26T09:01:23.944Z,39.03
2023-11-26T09:03:50.667Z,38.89
2023-11-26T09:06:17.346Z,38.97
2023-11-26T09:08:43.977Z,38.98
2023-11-26T09:11:10.577Z,39.05
2023-11-26T09:13:37.167Z,39.01
2023-11-26T09:16:03.770Z,38.95
2023-11-26T09:18:30.396Z,38.90
2023-11-26T09:20:57.027Z,38.89
2023-11-26T09:23:23.621Z,38.98
2023-11-26T09:25:50.224Z,38.96
2023-11-26T09:28:16.830Z,39.01
2023-11-26T09:30:43.532Z,38.98
2023-11-26T09:33:10.268Z,38.96
2023-11-26T09:35:36.940Z,38.91
2023-11-26T09:38:03.554Z,38.85
2023-11-26T09:40:30.167Z,39.07
2023-11-26T09:42:56.799Z,39.00
2023-11-26T09:45:23.435Z,38.88
2023-11-26T09:47:50.111Z,39.05
2023-11-26T09:50:16.729Z,38.90
2023-11-26T09:52:43.324Z,38.95
2023-11-26T09:55:09.955Z,39.02
2023-11-26T09:57:36.628Z,39.10
2023-11-26T10:00:03.254Z,38.99
2023-11-26T10:02:29.980Z,39.01
2023-11-26T10:04:56.642Z,38.94
2023-11-26T10:07:23.229Z,39.09
2023-11-26T10:09:49.848Z,39.03
2023-11-26T10:12:16.491Z,38.94
2023-11-26T10:14:43.082Z,38.84
2023-11-26T10:17:09.791Z,38.89
2023-11-26T10:22:02.929Z,38.77
2023-11-26T10:24:29.568Z,38.78
2023-11-26T10:26:56.186Z,38.66
2023-11-26T10:29:22.783Z,38.64
2023-11-26T10:31:49.372Z,38.61
2023-11-26T10:34:16.072Z,38.80
2023-11-26T10:36:42.881Z,38.77
2023-11-26T10:39:09.516Z,38.89
2023-11-26T10:41:36.109Z,38.79
2023-11-26T10:44:02.689Z,38.81
2023-11-26T10:46:29.337Z,38.96
2023-11-26T10:51:26.487Z,38.88
2023-11-26T10:53:53.502Z,38.96
2023-11-26T10:58:46.639Z,38.90
2023-11-26T11:01:13.345Z,38.86
2023-11-26T11:03:40.023Z,39.00
2023-11-26T11:06:06.636Z,38.97
2023-11-26T11:08:33.223Z,38.77
2023-11-26T11:10:59.813Z,38.47
2023-11-26T11:13:26.420Z,38.30
2023-11-26T11:15:53.128Z,38.35
2023-11-26T11:18:19.802Z,38.35
2023-11-26T11:20:46.418Z,38.58
2023-11-26T11:23:13.005Z,38.80
2023-11-26T11:25:39.603Z,39.45
2023-11-26T11:28:06.209Z,40.09
2023-11-26T11:30:33.059Z,40.67
2023-11-26T11:32:59.794Z,42.10
2023-11-26T11:35:26.429Z,41.84
2023-11-26T11:37:53.024Z,41.60
2023-11-26T11:40:19.626Z,41.49
2023-11-26T11:42:46.278Z,41.49
2023-11-26T11:45:12.891Z,41.45
2023-11-26T11:47:39.532Z,41.51
2023-11-26T11:50:06.156Z,41.55
2023-11-26T11:52:32.811Z,41.51
2023-11-26T11:54:59.430Z,41.63
2023-11-26T11:57:26.078Z,41.86
2023-11-26T11:59:52.694Z,42.29
2023-11-26T12:02:19.282Z,42.55
2023-11-26T12:04:46.010Z,43.12
2023-11-26T12:07:12.700Z,43.32
2023-11-26T12:09:39.301Z,43.11
2023-11-26T12:12:05.924Z,44.05
2023-11-26T12:14:32.533Z,43.94
2023-11-26T12:16:59.185Z,44.09
2023-11-26T12:19:25.790Z,44.21
2023-11-26T12:21:52.504Z,44.49
2023-11-26T12:24:19.149Z,43.23
2023-11-26T12:26:45.769Z,42.86
2023-11-26T12:29:12.382Z,42.71
2023-11-26T12:31:39.026Z,42.34
2023-11-26T12:34:05.642Z,42.26
2023-11-26T12:36:32.260Z,42.55
2023-11-26T12:38:58.886Z,42.58
2023-11-26T12:41:25.498Z,42.62
2023-11-26T12:43:52.110Z,42.56
2023-11-26T12:46:18.918Z,42.59
2023-11-26T12:48:45.585Z,42.49
2023-11-26T12:51:12.184Z,42.42
2023-11-26T12:53:38.800Z,42.86
2023-11-26T12:56:05.432Z,43.01
2023-11-26T12:58:32.069Z,43.12
2023-11-26T13:00:58.716Z,43.28
2023-11-26T13:03:25.451Z,43.41
2023-11-26T13:05:52.112Z,43.32
2023-11-26T13:08:18.824Z,43.12
2023-11-26T13:10:45.504Z,43.23
2023-11-26T13:13:12.210Z,43.13
2023-11-26T13:15:38.886Z,42.76
2023-11-26T13:18:05.626Z,42.75
2023-11-26T13:20:32.331Z,42.52
2023-11-26T13:23:00.754Z,42.54
2023-11-26T13:25:28.953Z,42.33
2023-11-26T13:27:55.570Z,42.27
2023-11-26T13:30:22.246Z,42.17
2023-11-26T13:32:48.979Z,42.05
2023-11-26T13:35:15.642Z,41.83
2023-11-26T13:37:42.258Z,41.87
2023-11-26T13:40:08.866Z,41.88
2023-11-26T13:42:35.514Z,41.83
2023-11-26T13:45:05.061Z,41.83
2023-11-26T13:47:37.246Z,41.76
2023-11-26T13:50:03.875Z,41.63
2023-11-26T13:52:30.481Z,41.65
2023-11-26T13:54:57.129Z,41.72
2023-11-26T13:57:23.827Z,41.70
2023-11-26T13:59:50.451Z,41.60
2023-11-26T14:02:17.159Z,41.17
2023-11-26T14:04:43.852Z,40.93
2023-11-26T14:07:10.450Z,40.62
2023-11-26T14:09:37.165Z,40.53
2023-11-26T14:12:03.779Z,40.33
2023-11-26T14:14:30.373Z,39.91
2023-11-26T14:16:57.011Z,39.43
2023-11-26T14:19:23.663Z,39.00
2023-11-26T14:21:50.340Z,39.16
2023-11-26T14:24:16.961Z,39.24
2023-11-26T14:26:43.562Z,39.54
2023-11-26T14:29:10.166Z,39.65
2023-11-26T14:31:36.778Z,39.72
2023-11-26T14:34:03.436Z,39.96
2023-11-26T14:36:31.654Z,40.19
2023-11-26T14:38:59.663Z,40.36
2023-11-26T14:41:26.253Z,40.34
2023-11-26T14:43:52.850Z,40.26
2023-11-26T14:46:19.468Z,40.25
2023-11-26T14:48:46.115Z,40.24
2023-11-26T14:51:12.740Z,40.45
2023-11-26T14:53:39.331Z,40.59
2023-11-26T14:56:05.928Z,40.65
2023-11-26T14:58:32.534Z,40.63
2023-11-26T15:00:59.217Z,40.81
2023-11-26T15:03:25.966Z,40.50
2023-11-26T15:05:52.610Z,40.76
2023-11-26T15:08:19.335Z,40.70
2023-11-26T15:10:45.968Z,40.76
2023-11-26T15:13:12.562Z,40.48
2023-11-26T15:15:39.200Z,40.39
2023-11-26T15:18:05.919Z,40.40
2023-11-26T15:20:32.545Z,39.80
2023-11-26T15:22:59.155Z,40.49
2023-11-26T15:25:25.770Z,40.18
2023-11-26T15:27:52.418Z,39.84
2023-11-26T15:30:19.022Z,39.63
2023-11-26T15:32:45.771Z,39.66
2023-11-26T15:35:12.713Z,39.53
2023-11-26T15:37:39.580Z,39.36
2023-11-26T15:40:06.233Z,39.43
2023-11-26T15:42:32.888Z,39.36
2023-11-26T15:44:59.509Z,39.24
2023-11-26T15:47:26.110Z,39.25
2023-11-26T15:49:52.714Z,39.33
2023-11-26T15:52:19.321Z,39.24
2023-11-26T15:54:45.939Z,39.27
2023-11-26T15:57:12.621Z,39.12
2023-11-26T15:59:39.235Z,39.14
2023-11-26T16:02:05.992Z,39.29
2023-11-26T16:04:32.661Z,39.11
2023-11-26T16:06:59.350Z,39.09
2023-11-26T16:09:26.011Z,39.20
2023-11-26T16:11:52.634Z,39.18
2023-11-26T16:14:19.229Z,39.15
2023-11-26T16:16:52.408Z,39.02
2023-11-26T16:19:26.561Z,39.10
2023-11-26T16:21:53.250Z,39.03
2023-11-26T16:24:28.801Z,39.08
2023-11-26T16:26:59.140Z,39.04
2023-11-26T16:29:25.737Z,39.09
2023-11-26T16:31:52.333Z,39.02
2023-11-26T16:34:18.952Z,38.98
2023-11-26T16:36:45.556Z,39.06
2023-11-26T16:39:12.162Z,38.93
2023-11-26T16:41:38.754Z,39.07
2023-11-26T16:44:05.388Z,38.87
2023-11-26T16:46:32.049Z,39.07
2023-11-26T16:48:58.709Z,38.96
2023-11-26T16:51:25.412Z,39.07
2023-11-26T16:53:52.010Z,38.95
2023-11-26T16:58:45.389Z,38.94
2023-11-26T17:01:12.102Z,38.87
2023-11-26T17:03:38.922Z,39.00
2023-11-26T17:06:05.563Z,38.96
2023-11-26T17:08:32.183Z,38.89
2023-11-26T17:10:58.796Z,38.89
2023-11-26T17:13:25.395Z,39.00
2023-11-26T17:15:52.097Z,38.87
2023-11-26T17:18:18.930Z,38.78
2023-11-26T17:20:45.600Z,38.82
2023-11-26T17:23:12.247Z,38.80
2023-11-26T17:25:38.846Z,38.93
2023-11-26T17:28:05.531Z,38.77
2023-11-26T17:30:32.172Z,38.83
2023-11-26T17:32:58.814Z,38.79
2023-11-26T17:35:25.426Z,38.84
2023-11-26T17:37:52.031Z,38.78
2023-11-26T17:40:18.653Z,38.73
2023-11-26T17:42:45.268Z,38.82
2023-11-26T17:45:11.902Z,38.77
2023-11-26T17:47:38.497Z,38.83
2023-11-26T17:50:05.136Z,38.88
2023-11-26T17:52:31.741Z,38.69
2023-11-26T17:54:58.351Z,38.76
2023-11-26T17:57:25.012Z,38.80
2023-11-26T17:59:51.607Z,38.80
2023-11-26T18:02:18.320Z,38.85
2023-11-26T18:04:45.056Z,38.66
2023-11-26T18:07:11.685Z,38.69
2023-11-26T18:09:38.300Z,38.70
2023-11-26T18:12:07.707Z,38.68
2023-11-26T18:14:34.305Z,38.62
2023-11-26T18:17:00.976Z,38.77
2023-11-26T18:19:27.598Z,38.74
2023-11-26T18:21:54.240Z,38.70
2023-11-26T18:24:20.869Z,38.86
2023-11-26T18:26:47.481Z,39.03
2023-11-26T18:29:14.076Z,39.26
2023-11-26T18:31:40.724Z,39.85
2023-11-26T18:34:07.377Z,40.01
2023-11-26T18:36:34.050Z,40.21
2023-11-26T18:39:00.679Z,40.40
2023-11-26T18:41:27.288Z,40.60
2023-11-26T18:43:53.890Z,40.67
2023-11-26T18:46:20.548Z,40.89
2023-11-26T18:48:47.208Z,41.33
2023-11-26T18:51:13.825Z,44.11
2023-11-26T18:53:40.437Z,45.03
2023-11-26T18:56:07.056Z,45.82
2023-11-26T18:58:33.661Z,47.01
2023-11-26T19:01:00.426Z,47.58
2023-11-26T19:03:27.096Z,46.60
2023-11-26T19:05:53.709Z,46.15
2023-11-26T19:08:20.318Z,46.87
2023-11-26T19:10:46.915Z,46.68
2023-11-26T19:13:13.534Z,46.37
2023-11-26T19:15:40.167Z,46.28
2023-11-26T19:18:06.823Z,46.33
2023-11-26T19:20:33.456Z,46.23
2023-11-26T19:23:00.077Z,45.70
2023-11-26T19:25:26.692Z,45.51
2023-11-26T19:27:53.360Z,45.25
2023-11-26T19:30:20.000Z,45.29
2023-11-26T19:32:46.614Z,45.02
2023-11-26T19:35:13.221Z,45.02
2023-11-26T19:37:39.835Z,44.92
2023-11-26T19:40:06.460Z,44.70
2023-11-26T19:42:33.151Z,44.78
2023-11-26T19:44:59.781Z,44.65
2023-11-26T19:47:26.387Z,44.65
2023-11-26T19:49:52.984Z,44.59
2023-11-26T19:52:19.657Z,44.54
2023-11-26T19:54:46.406Z,44.37
2023-11-26T19:57:13.025Z,44.64
2023-11-26T19:59:39.636Z,44.57
2023-11-26T20:02:06.331Z,44.42
2023-11-26T20:04:33.016Z,44.27
2023-11-26T20:06:59.746Z,44.14
2023-11-26T20:09:26.370Z,44.23
2023-11-26T20:11:52.960Z,44.17
2023-11-26T20:14:19.554Z,44.29
2023-11-26T20:16:46.169Z,44.14
2023-11-26T20:19:12.829Z,44.39
2023-11-26T20:21:39.474Z,44.06
2023-11-26T20:24:06.081Z,43.97
2023-11-26T20:26:32.680Z,43.75
2023-11-26T20:28:59.289Z,44.02
2023-11-26T20:31:25.896Z,44.05
2023-11-26T20:33:52.639Z,44.01
2023-11-26T20:36:19.337Z,43.59
2023-11-26T20:38:45.955Z,43.17
2023-11-26T20:41:12.621Z,43.12
2023-11-26T20:43:39.225Z,43.05
2023-11-26T20:46:05.922Z,42.78
2023-11-26T20:48:32.635Z,42.81
2023-11-26T20:50:59.287Z,42.88
2023-11-26T20:53:25.904Z,42.82
2023-11-26T20:55:52.507Z,42.90
2023-11-26T20:58:19.181Z,42.63
2023-11-26T21:00:46.014Z,42.66
2023-11-26T21:03:12.734Z,42.72
2023-11-26T21:05:39.384Z,42.50
2023-11-26T21:08:06.001Z,42.64
2023-11-26T21:10:32.623Z,42.58
2023-11-26T21:12:59.264Z,42.42
2023-11-26T21:15:25.881Z,42.42
2023-11-26T21:17:52.524Z,42.43
2023-11-26T21:20:19.150Z,42.34
2023-11-26T21:22:45.731Z,42.23
2023-11-26T21:25:12.399Z,42.19
2023-11-26T21:27:39.161Z,42.08
2023-11-26T21:30:05.808Z,42.09
2023-11-26T21:32:32.431Z,41.98
2023-11-26T21:34:59.171Z,41.98
2023-11-26T21:37:25.805Z,42.17
2023-11-26T21:39:52.412Z,41.98
2023-11-26T21:42:19.068Z,41.96
2023-11-26T21:44:45.670Z,41.93
2023-11-26T21:47:12.329Z,42.07
2023-11-26T21:49:38.954Z,41.95
2023-11-26T21:52:05.624Z,41.98
2023-11-26T21:54:32.238Z,41.99
2023-11-26T21:56:58.831Z,41.82
2023-11-26T21:59:25.457Z,41.77
2023-11-26T22:01:52.476Z,41.99
2023-11-26T22:04:19.489Z,41.92
2023-11-26T22:06:46.222Z,41.87
2023-11-26T22:09:12.950Z,41.93
2023-11-26T22:11:39.549Z,41.80
2023-11-26T22:14:06.178Z,41.75
2023-11-26T22:16:32.797Z,41.53
2023-11-26T22:19:00.688Z,41.65
2023-11-26T22:21:28.319Z,41.63
2023-11-26T22:23:54.968Z,41.67
2023-11-26T22:26:21.566Z,41.58
2023-11-26T22:28:48.176Z,41.45
2023-11-26T22:31:14.897Z,41.51
2023-11-26T22:33:41.600Z,41.33
2023-11-26T22:36:08.218Z,41.37
2023-11-26T22:38:34.816Z,41.30
2023-11-26T22:41:01.434Z,41.18
2023-11-26T22:43:28.120Z,41.27
2023-11-26T22:45:54.803Z,41.15
2023-11-26T22:48:21.442Z,41.05
2023-11-26T22:50:52.633Z,41.06
2023-11-26T22:53:20.060Z,41.06
2023-11-26T22:55:46.652Z,40.94
2023-11-26T22:58:13.392Z,40.93
2023-11-26T23:00:40.078Z,41.01
2023-11-26T23:03:06.776Z,40.88
2023-11-26T23:05:33.431Z,40.87
2023-11-26T23:08:00.128Z,40.92
2023-11-26T23:10:26.730Z,40.92
2023-11-26T23:12:53.367Z,40.95
2023-11-26T23:15:20.001Z,41.03
2023-11-26T23:17:46.628Z,40.94
2023-11-26T23:20:13.298Z,40.86
2023-11-26T23:22:39.909Z,40.86
2023-11-26T23:25:06.573Z,40.80
2023-11-26T23:27:33.230Z,40.72
2023-11-26T23:29:59.824Z,40.89
2023-11-26T23:32:26.445Z,40.77
2023-11-26T23:34:53.064Z,40.87
